sensor_id;sensor_type;location;lat;lon;timestamp;pressure;altitude;pressure_sealevel;temperature;humidity
49529;BME280;35423;37.320;-121.762;2022-11-15T00:02:21;100197.83;;;34.66;7.01
49529;BME280;35423;37.320;-121.762;2022-11-15T00:04:49;100198.33;;;34.01;7.19
49529;BME280;35423;37.320;-121.762;2022-11-15T00:07:14;100198.00;;;33.81;7.31
49529;BME280;35423;37.320;-121.762;2022-11-15T00:09:41;100200.40;;;34.24;7.32
49529;BME280;35423;37.320;-121.762;2022-11-15T00:12:05;100201.21;;;33.58;7.30
49529;BME280;35423;37.320;-121.762;2022-11-15T00:14:31;100198.88;;;33.57;7.47
49529;BME280;35423;37.320;-121.762;2022-11-15T00:16:56;100196.97;;;32.93;7.61
49529;BME280;35423;37.320;-121.762;2022-11-15T00:19:30;100193.24;;;33.18;7.79
49529;BME280;35423;37.320;-121.762;2022-11-15T00:21:57;100195.05;;;32.19;7.99
49529;BME280;35423;37.320;-121.762;2022-11-15T00:24:23;100196.69;;;32.03;8.34
49529;BME280;35423;37.320;-121.762;2022-11-15T00:26:56;100198.13;;;31.51;8.60
49529;BME280;35423;37.320;-121.762;2022-11-15T00:29:19;100202.50;;;30.78;8.91
49529;BME280;35423;37.320;-121.762;2022-11-15T00:31:50;100206.76;;;31.03;9.39
49529;BME280;35423;37.320;-121.762;2022-11-15T00:34:15;100207.12;;;30.04;9.90
49529;BME280;35423;37.320;-121.762;2022-11-15T00:36:45;100209.87;;;29.70;10.48
49529;BME280;35423;37.320;-121.762;2022-11-15T00:39:12;100215.06;;;28.85;10.97
49529;BME280;35423;37.320;-121.762;2022-11-15T00:41:44;100217.36;;;29.32;11.31
49529;BME280;35423;37.320;-121.762;2022-11-15T00:44:42;100223.51;;;29.26;11.53
49529;BME280;35423;37.320;-121.762;2022-11-15T00:47:10;100226.53;;;28.16;11.73
49529;BME280;35423;37.320;-121.762;2022-11-15T00:49:34;100227.00;;;28.23;11.92
49529;BME280;35423;37.320;-121.762;2022-11-15T00:52:02;100226.61;;;27.43;12.17
49529;BME280;35423;37.320;-121.762;2022-11-15T00:54:28;100230.79;;;28.10;12.31
49529;BME280;35423;37.320;-121.762;2022-11-15T00:56:54;100232.80;;;27.79;12.48
49529;BME280;35423;37.320;-121.762;2022-11-15T00:59:23;100234.54;;;27.45;12.69
49529;BME280;35423;37.320;-121.762;2022-11-15T01:01:58;100238.38;;;27.26;12.80
49529;BME280;35423;37.320;-121.762;2022-11-15T01:04:29;100238.59;;;27.19;12.91
49529;BME280;35423;37.320;-121.762;2022-11-15T01:06:59;100238.54;;;27.26;13.02
49529;BME280;35423;37.320;-121.762;2022-11-15T01:09:25;100238.83;;;26.69;13.09
49529;BME280;35423;37.320;-121.762;2022-11-15T01:11:50;100241.41;;;26.47;13.15
49529;BME280;35423;37.320;-121.762;2022-11-15T01:14:15;100244.09;;;26.50;13.34
49529;BME280;35423;37.320;-121.762;2022-11-15T01:16:41;100241.88;;;26.33;13.45
49529;BME280;35423;37.320;-121.762;2022-11-15T01:19:09;100249.90;;;25.74;13.51
49529;BME280;35423;37.320;-121.762;2022-11-15T01:21:40;100254.93;;;25.81;13.69
49529;BME280;35423;37.320;-121.762;2022-11-15T01:24:13;100255.30;;;25.20;13.86
49529;BME280;35423;37.320;-121.762;2022-11-15T01:26:36;100254.93;;;25.73;13.99
49529;BME280;35423;37.320;-121.762;2022-11-15T01:29:02;100253.83;;;25.12;14.11
49529;BME280;35423;37.320;-121.762;2022-11-15T01:31:28;100256.05;;;25.25;14.20
49529;BME280;35423;37.320;-121.762;2022-11-15T01:33:56;100256.00;;;25.05;14.38
49529;BME280;35423;37.320;-121.762;2022-11-15T01:36:22;100256.20;;;25.42;14.47
49529;BME280;35423;37.320;-121.762;2022-11-15T01:38:53;100258.85;;;25.39;14.52
49529;BME280;35423;37.320;-121.762;2022-11-15T01:41:17;100263.38;;;24.93;14.70
49529;BME280;35423;37.320;-121.762;2022-11-15T01:43:42;100265.91;;;25.25;14.87
49529;BME280;35423;37.320;-121.762;2022-11-15T01:46:18;100268.10;;;24.41;14.88
49529;BME280;35423;37.320;-121.762;2022-11-15T01:48:35;100267.88;;;24.74;15.04
49529;BME280;35423;37.320;-121.762;2022-11-15T01:51:04;100265.82;;;24.20;15.11
49529;BME280;35423;37.320;-121.762;2022-11-15T01:53:28;100263.44;;;24.51;15.19
49529;BME280;35423;37.320;-121.762;2022-11-15T01:55:56;100263.62;;;24.32;15.33
49529;BME280;35423;37.320;-121.762;2022-11-15T01:58:25;100264.10;;;24.25;15.42
49529;BME280;35423;37.320;-121.762;2022-11-15T02:00:51;100267.82;;;24.15;15.62
49529;BME280;35423;37.320;-121.762;2022-11-15T02:03:16;100271.55;;;23.89;15.74
49529;BME280;35423;37.320;-121.762;2022-11-15T02:05:45;100274.38;;;24.00;15.77
49529;BME280;35423;37.320;-121.762;2022-11-15T02:08:11;100276.68;;;23.23;15.86
49529;BME280;35423;37.320;-121.762;2022-11-15T02:10:39;100279.05;;;23.48;15.96
49529;BME280;35423;37.320;-121.762;2022-11-15T02:13:12;100283.69;;;22.98;16.01
49529;BME280;35423;37.320;-121.762;2022-11-15T02:15:44;100289.70;;;23.62;16.12
49529;BME280;35423;37.320;-121.762;2022-11-15T02:18:14;100292.82;;;22.77;16.58
49529;BME280;35423;37.320;-121.762;2022-11-15T02:26:03;100294.28;;;23.08;17.00
49529;BME280;35423;37.320;-121.762;2022-11-15T02:30:49;100298.93;;;22.78;17.01
49529;BME280;35423;37.320;-121.762;2022-11-15T02:33:21;100299.17;;;21.75;16.95
49529;BME280;35423;37.320;-121.762;2022-11-15T02:35:44;100298.08;;;22.61;16.96
49529;BME280;35423;37.320;-121.762;2022-11-15T02:38:11;100297.49;;;21.76;16.96
49529;BME280;35423;37.320;-121.762;2022-11-15T02:40:37;100301.78;;;22.59;17.16
49529;BME280;35423;37.320;-121.762;2022-11-15T02:43:04;100301.13;;;22.02;17.52
49529;BME280;35423;37.320;-121.762;2022-11-15T02:45:37;100301.18;;;22.56;17.65
49529;BME280;35423;37.320;-121.762;2022-11-15T02:48:00;100296.59;;;21.94;17.55
49529;BME280;35423;37.320;-121.762;2022-11-15T02:50:33;100291.23;;;22.53;17.49
49529;BME280;35423;37.320;-121.762;2022-11-15T02:52:58;100296.55;;;21.75;17.48
49529;BME280;35423;37.320;-121.762;2022-11-15T02:55:29;100303.45;;;22.37;17.47
49529;BME280;35423;37.320;-121.762;2022-11-15T02:58:08;100306.14;;;21.66;17.56
49529;BME280;35423;37.320;-121.762;2022-11-15T03:00:22;100304.11;;;21.99;17.54
49529;BME280;35423;37.320;-121.762;2022-11-15T03:03:05;100303.47;;;22.15;17.58
49529;BME280;35423;37.320;-121.762;2022-11-15T03:05:23;100302.78;;;22.05;17.68
49529;BME280;35423;37.320;-121.762;2022-11-15T03:08:00;100307.61;;;22.23;17.80
49529;BME280;35423;37.320;-121.762;2022-11-15T03:10:24;100314.91;;;21.67;17.88
49529;BME280;35423;37.320;-121.762;2022-11-15T03:12:49;100320.79;;;21.71;18.15
49529;BME280;35423;37.320;-121.762;2022-11-15T03:15:26;100326.38;;;21.12;18.45
49529;BME280;35423;37.320;-121.762;2022-11-15T03:18:02;100328.88;;;20.83;18.47
49529;BME280;35423;37.320;-121.762;2022-11-15T03:20:25;100331.39;;;21.29;18.34
49529;BME280;35423;37.320;-121.762;2022-11-15T03:23:00;100330.97;;;21.07;18.30
49529;BME280;35423;37.320;-121.762;2022-11-15T03:25:29;100331.19;;;21.18;18.47
49529;BME280;35423;37.320;-121.762;2022-11-15T03:28:02;100332.99;;;20.66;18.47
49529;BME280;35423;37.320;-121.762;2022-11-15T03:30:31;100337.52;;;21.18;18.56
49529;BME280;35423;37.320;-121.762;2022-11-15T03:32:56;100345.74;;;21.75;18.56
49529;BME280;35423;37.320;-121.762;2022-11-15T03:35:26;100345.85;;;21.25;18.75
49529;BME280;35423;37.320;-121.762;2022-11-15T03:38:06;100346.21;;;20.62;18.75
49529;BME280;35423;37.320;-121.762;2022-11-15T03:40:30;100349.65;;;21.36;18.68
49529;BME280;35423;37.320;-121.762;2022-11-15T03:42:57;100351.74;;;21.61;18.73
49529;BME280;35423;37.320;-121.762;2022-11-15T03:45:19;100352.37;;;21.14;18.92
49529;BME280;35423;37.320;-121.762;2022-11-15T03:48:01;100350.49;;;21.51;19.04
49529;BME280;35423;37.320;-121.762;2022-11-15T03:50:20;100351.48;;;21.13;19.08
49529;BME280;35423;37.320;-121.762;2022-11-15T03:52:50;100352.31;;;21.03;19.09
49529;BME280;35423;37.320;-121.762;2022-11-15T03:55:20;100357.28;;;20.95;19.18
49529;BME280;35423;37.320;-121.762;2022-11-15T03:57:43;100358.49;;;21.24;19.16
49529;BME280;35423;37.320;-121.762;2022-11-15T04:00:27;100360.28;;;21.01;19.18
49529;BME280;35423;37.320;-121.762;2022-11-15T04:02:55;100365.25;;;21.41;19.11
49529;BME280;35423;37.320;-121.762;2022-11-15T04:05:20;100370.30;;;21.08;19.27
49529;BME280;35423;37.320;-121.762;2022-11-15T04:07:48;100373.13;;;21.14;19.55
49529;BME280;35423;37.320;-121.762;2022-11-15T04:10:20;100371.56;;;20.63;19.91
49529;BME280;35423;37.320;-121.762;2022-11-15T04:12:54;100370.84;;;20.91;20.14
49529;BME280;35423;37.320;-121.762;2022-11-15T04:15:21;100367.87;;;20.47;20.37
49529;BME280;35423;37.320;-121.762;2022-11-15T04:17:48;100370.83;;;20.65;20.37
49529;BME280;35423;37.320;-121.762;2022-11-15T04:20:20;100367.35;;;20.35;20.43
49529;BME280;35423;37.320;-121.762;2022-11-15T04:22:45;100368.04;;;20.33;20.38
49529;BME280;35423;37.320;-121.762;2022-11-15T04:25:10;100370.58;;;20.22;20.42
49529;BME280;35423;37.320;-121.762;2022-11-15T04:27:35;100376.20;;;20.36;20.48
49529;BME280;35423;37.320;-121.762;2022-11-15T04:30:00;100379.27;;;19.65;20.46
49529;BME280;35423;37.320;-121.762;2022-11-15T04:32:25;100383.38;;;20.35;20.49
49529;BME280;35423;37.320;-121.762;2022-11-15T04:34:54;100386.00;;;20.33;20.53
49529;BME280;35423;37.320;-121.762;2022-11-15T04:37:18;100385.13;;;20.03;20.65
49529;BME280;35423;37.320;-121.762;2022-11-15T04:39:54;100385.95;;;20.35;20.77
49529;BME280;35423;37.320;-121.762;2022-11-15T04:42:26;100384.62;;;20.05;20.80
49529;BME280;35423;37.320;-121.762;2022-11-15T04:44:56;100384.82;;;19.62;20.90
49529;BME280;35423;37.320;-121.762;2022-11-15T04:47:26;100383.38;;;19.97;21.04
49529;BME280;35423;37.320;-121.762;2022-11-15T04:49:58;100382.76;;;19.48;21.10
49529;BME280;35423;37.320;-121.762;2022-11-15T04:52:23;100384.44;;;19.77;21.15
49529;BME280;35423;37.320;-121.762;2022-11-15T04:54:47;100386.04;;;19.56;21.29
49529;BME280;35423;37.320;-121.762;2022-11-15T04:57:16;100387.35;;;19.00;21.34
49529;BME280;35423;37.320;-121.762;2022-11-15T04:59:48;100388.41;;;19.34;21.39
49529;BME280;35423;37.320;-121.762;2022-11-15T05:02:16;100392.64;;;19.15;21.53
49529;BME280;35423;37.320;-121.762;2022-11-15T05:04:42;100395.54;;;19.18;21.49
49529;BME280;35423;37.320;-121.762;2022-11-15T05:07:07;100396.25;;;18.43;21.48
49529;BME280;35423;37.320;-121.762;2022-11-15T05:09:33;100402.09;;;19.12;21.60
49529;BME280;35423;37.320;-121.762;2022-11-15T05:12:02;100405.42;;;18.42;21.53
49529;BME280;35423;37.320;-121.762;2022-11-15T05:14:29;100405.21;;;19.06;21.53
49529;BME280;35423;37.320;-121.762;2022-11-15T05:16:56;100407.93;;;19.39;21.67
49529;BME280;35423;37.320;-121.762;2022-11-15T05:19:23;100409.20;;;18.89;21.68
49529;BME280;35423;37.320;-121.762;2022-11-15T05:21:53;100414.38;;;19.31;21.81
49529;BME280;35423;37.320;-121.762;2022-11-15T05:24:20;100418.32;;;18.83;21.85
49529;BME280;35423;37.320;-121.762;2022-11-15T05:26:49;100421.36;;;19.35;21.85
49529;BME280;35423;37.320;-121.762;2022-11-15T05:29:14;100423.02;;;19.34;21.77
49529;BME280;35423;37.320;-121.762;2022-11-15T05:31:50;100426.99;;;19.20;21.80
49529;BME280;35423;37.320;-121.762;2022-11-15T05:34:17;100431.99;;;18.63;21.90
49529;BME280;35423;37.320;-121.762;2022-11-15T05:36:48;100436.20;;;19.07;21.92
49529;BME280;35423;37.320;-121.762;2022-11-15T05:39:12;100435.62;;;18.46;22.04
49529;BME280;35423;37.320;-121.762;2022-11-15T05:41:41;100435.16;;;18.81;22.15
49529;BME280;35423;37.320;-121.762;2022-11-15T05:44:09;100437.04;;;17.87;22.14
49529;BME280;35423;37.320;-121.762;2022-11-15T05:46:40;100438.47;;;18.73;22.34
49529;BME280;35423;37.320;-121.762;2022-11-15T05:49:07;100437.64;;;18.12;22.42
49529;BME280;35423;37.320;-121.762;2022-11-15T05:51:37;100434.93;;;18.57;22.45
49529;BME280;35423;37.320;-121.762;2022-11-15T05:54:06;100433.68;;;17.54;22.50
49529;BME280;35423;37.320;-121.762;2022-11-15T05:56:36;100433.35;;;18.29;22.52
49529;BME280;35423;37.320;-121.762;2022-11-15T05:59:03;100430.37;;;17.70;22.56
49529;BME280;35423;37.320;-121.762;2022-11-15T06:01:36;100429.06;;;18.35;22.62
49529;BME280;35423;37.320;-121.762;2022-11-15T06:04:02;100431.07;;;17.36;22.65
49529;BME280;35423;37.320;-121.762;2022-11-15T06:06:28;100431.74;;;18.24;22.60
49529;BME280;35423;37.320;-121.762;2022-11-15T06:08:59;100430.24;;;18.16;22.66
49529;BME280;35423;37.320;-121.762;2022-11-15T06:11:22;100432.56;;;18.05;22.70
49529;BME280;35423;37.320;-121.762;2022-11-15T06:13:54;100430.34;;;18.00;22.74
49529;BME280;35423;37.320;-121.762;2022-11-15T06:16:28;100431.09;;;17.95;22.74
49529;BME280;35423;37.320;-121.762;2022-11-15T06:18:59;100432.63;;;18.42;22.76
49529;BME280;35423;37.320;-121.762;2022-11-15T06:21:27;100436.91;;;17.81;22.80
49529;BME280;35423;37.320;-121.762;2022-11-15T06:23:55;100437.91;;;17.78;22.83
49529;BME280;35423;37.320;-121.762;2022-11-15T06:26:27;100434.38;;;18.10;22.78
49529;BME280;35423;37.320;-121.762;2022-11-15T06:29:00;100433.30;;;18.37;22.72
49529;BME280;35423;37.320;-121.762;2022-11-15T06:31:46;100436.91;;;18.28;22.76
49529;BME280;35423;37.320;-121.762;2022-11-15T06:34:17;100438.31;;;17.72;22.84
49529;BME280;35423;37.320;-121.762;2022-11-15T06:36:50;100437.50;;;18.17;22.92
49529;BME280;35423;37.320;-121.762;2022-11-15T06:39:17;100438.48;;;17.63;23.02
49529;BME280;35423;37.320;-121.762;2022-11-15T06:41:45;100438.35;;;18.04;23.12
49529;BME280;35423;37.320;-121.762;2022-11-15T06:44:11;100440.22;;;17.52;23.17
49529;BME280;35423;37.320;-121.762;2022-11-15T06:46:40;100441.67;;;18.04;23.23
49529;BME280;35423;37.320;-121.762;2022-11-15T06:49:08;100444.45;;;18.17;23.30
49529;BME280;35423;37.320;-121.762;2022-11-15T06:51:34;100445.34;;;17.78;23.51
49529;BME280;35423;37.320;-121.762;2022-11-15T06:54:00;100443.36;;;17.02;23.54
49529;BME280;35423;37.320;-121.762;2022-11-15T06:56:26;100444.66;;;17.67;23.71
49529;BME280;35423;37.320;-121.762;2022-11-15T06:58:56;100443.77;;;17.47;23.77
49529;BME280;35423;37.320;-121.762;2022-11-15T07:01:28;100446.67;;;17.25;23.79
49529;BME280;35423;37.320;-121.762;2022-11-15T07:03:56;100444.52;;;17.68;23.90
49529;BME280;35423;37.320;-121.762;2022-11-15T07:06:22;100443.14;;;17.20;23.93
49529;BME280;35423;37.320;-121.762;2022-11-15T07:08:55;100442.94;;;17.70;23.94
49529;BME280;35423;37.320;-121.762;2022-11-15T07:11:22;100441.66;;;17.11;24.09
49529;BME280;35423;37.320;-121.762;2022-11-15T07:13:47;100443.20;;;17.61;24.11
49529;BME280;35423;37.320;-121.762;2022-11-15T07:16:13;100443.40;;;17.06;24.16
49529;BME280;35423;37.320;-121.762;2022-11-15T07:18:41;100443.24;;;17.41;24.22
49529;BME280;35423;37.320;-121.762;2022-11-15T07:21:09;100443.80;;;16.65;24.27
49529;BME280;35423;37.320;-121.762;2022-11-15T07:23:52;100445.81;;;17.69;24.45
49529;BME280;35423;37.320;-121.762;2022-11-15T07:26:18;100447.46;;;17.07;24.72
49529;BME280;35423;37.320;-121.762;2022-11-15T07:28:44;100447.98;;;17.25;24.79
49529;BME280;35423;37.320;-121.762;2022-11-15T07:31:10;100448.35;;;16.73;24.86
49529;BME280;35423;37.320;-121.762;2022-11-15T07:33:38;100446.10;;;17.11;24.89
49529;BME280;35423;37.320;-121.762;2022-11-15T07:36:05;100443.70;;;16.15;24.88
49529;BME280;35423;37.320;-121.762;2022-11-15T07:38:37;100449.19;;;16.76;24.95
49529;BME280;35423;37.320;-121.762;2022-11-15T07:41:04;100449.56;;;16.12;25.00
49529;BME280;35423;37.320;-121.762;2022-11-15T07:43:29;100450.44;;;16.74;25.11
49529;BME280;35423;37.320;-121.762;2022-11-15T07:45:56;100455.44;;;16.71;25.20
49529;BME280;35423;37.320;-121.762;2022-11-15T07:48:23;100454.13;;;16.66;25.23
49529;BME280;35423;37.320;-121.762;2022-11-15T07:50:52;100450.62;;;16.88;25.32
49529;BME280;35423;37.320;-121.762;2022-11-15T07:53:17;100447.59;;;16.33;25.41
49529;BME280;35423;37.320;-121.762;2022-11-15T07:55:42;100444.80;;;16.70;25.48
49529;BME280;35423;37.320;-121.762;2022-11-15T07:58:13;100441.63;;;16.24;25.62
49529;BME280;35423;37.320;-121.762;2022-11-15T08:00:38;100445.76;;;15.49;25.69
49529;BME280;35423;37.320;-121.762;2022-11-15T08:03:06;100449.01;;;15.68;25.49
49529;BME280;35423;37.320;-121.762;2022-11-15T08:05:34;100447.09;;;16.57;25.58
49529;BME280;35423;37.320;-121.762;2022-11-15T08:07:59;100449.30;;;16.07;25.61
49529;BME280;35423;37.320;-121.762;2022-11-15T08:10:24;100452.55;;;16.23;25.64
49529;BME280;35423;37.320;-121.762;2022-11-15T08:12:58;100452.90;;;16.40;25.65
49529;BME280;35423;37.320;-121.762;2022-11-15T08:15:27;100454.74;;;16.35;25.69
49529;BME280;35423;37.320;-121.762;2022-11-15T08:17:59;100455.99;;;15.69;25.93
49529;BME280;35423;37.320;-121.762;2022-11-15T08:20:27;100455.22;;;16.15;26.00
49529;BME280;35423;37.320;-121.762;2022-11-15T08:22:50;100455.06;;;16.32;26.27
49529;BME280;35423;37.320;-121.762;2022-11-15T08:25:21;100454.33;;;16.06;26.35
49529;BME280;35423;37.320;-121.762;2022-11-15T08:27:47;100452.62;;;16.32;26.02
49529;BME280;35423;37.320;-121.762;2022-11-15T08:30:20;100452.69;;;16.12;26.09
49529;BME280;35423;37.320;-121.762;2022-11-15T08:32:45;100451.18;;;16.07;26.19
49529;BME280;35423;37.320;-121.762;2022-11-15T08:35:17;100451.32;;;15.92;26.44
49529;BME280;35423;37.320;-121.762;2022-11-15T08:37:44;100449.84;;;16.18;26.54
49529;BME280;35423;37.320;-121.762;2022-11-15T08:40:12;100449.24;;;15.56;26.78
49529;BME280;35423;37.320;-121.762;2022-11-15T08:42:37;100448.22;;;15.77;26.92
49529;BME280;35423;37.320;-121.762;2022-11-15T08:45:04;100453.33;;;14.78;26.93
49529;BME280;35423;37.320;-121.762;2022-11-15T08:47:31;100453.13;;;15.67;27.05
49529;BME280;35423;37.320;-121.762;2022-11-15T08:49:57;100454.13;;;15.33;27.16
49529;BME280;35423;37.320;-121.762;2022-11-15T08:52:22;100453.66;;;15.47;27.22
49529;BME280;35423;37.320;-121.762;2022-11-15T08:54:50;100451.96;;;15.40;27.22
49529;BME280;35423;37.320;-121.762;2022-11-15T08:57:16;100454.91;;;15.09;27.26
49529;BME280;35423;37.320;-121.762;2022-11-15T08:59:48;100455.92;;;15.48;27.36
49529;BME280;35423;37.320;-121.762;2022-11-15T09:02:14;100457.54;;;14.94;27.38
49529;BME280;35423;37.320;-121.762;2022-11-15T09:04:47;100457.52;;;15.66;27.31
49529;BME280;35423;37.320;-121.762;2022-11-15T09:07:15;100459.47;;;14.86;27.40
49529;BME280;35423;37.320;-121.762;2022-11-15T09:09:41;100460.97;;;15.30;27.44
49529;BME280;35423;37.320;-121.762;2022-11-15T09:12:07;100463.51;;;14.79;27.51
49529;BME280;35423;37.320;-121.762;2022-11-15T09:14:33;100464.24;;;15.18;27.57
49529;BME280;35423;37.320;-121.762;2022-11-15T09:16:58;100464.52;;;14.86;27.68
49529;BME280;35423;37.320;-121.762;2022-11-15T09:19:34;100465.52;;;15.09;27.71
49529;BME280;35423;37.320;-121.762;2022-11-15T09:22:09;100467.87;;;14.63;27.68
49529;BME280;35423;37.320;-121.762;2022-11-15T09:24:34;100467.94;;;15.26;27.76
49529;BME280;35423;37.320;-121.762;2022-11-15T09:27:00;100471.91;;;14.48;27.88
49529;BME280;35423;37.320;-121.762;2022-11-15T09:29:31;100472.40;;;15.12;27.88
49529;BME280;35423;37.320;-121.762;2022-11-15T09:31:57;100472.91;;;14.79;27.90
49529;BME280;35423;37.320;-121.762;2022-11-15T09:34:25;100475.48;;;14.56;27.93
49529;BME280;35423;37.320;-121.762;2022-11-15T09:36:52;100478.58;;;15.04;27.96
49529;BME280;35423;37.320;-121.762;2022-11-15T09:39:21;100482.65;;;14.75;28.21
49529;BME280;35423;37.320;-121.762;2022-11-15T09:41:58;100482.84;;;15.00;28.13
49529;BME280;35423;37.320;-121.762;2022-11-15T09:44:29;100480.28;;;14.71;28.21
49529;BME280;35423;37.320;-121.762;2022-11-15T09:46:50;100478.85;;;14.97;28.10
49529;BME280;35423;37.320;-121.762;2022-11-15T09:49:09;100475.22;;;14.57;28.13
49529;BME280;35423;37.320;-121.762;2022-11-15T09:51:40;100472.23;;;14.78;28.12
49529;BME280;35423;37.320;-121.762;2022-11-15T09:54:18;100472.65;;;14.42;28.20
49529;BME280;35423;37.320;-121.762;2022-11-15T09:56:42;100470.14;;;14.89;28.21
49529;BME280;35423;37.320;-121.762;2022-11-15T09:59:24;100466.80;;;14.09;28.23
49529;BME280;35423;37.320;-121.762;2022-11-15T10:01:44;100468.74;;;14.78;28.26
49529;BME280;35423;37.320;-121.762;2022-11-15T10:04:15;100472.09;;;14.54;28.25
49529;BME280;35423;37.320;-121.762;2022-11-15T10:06:51;100472.72;;;14.73;28.32
49529;BME280;35423;37.320;-121.762;2022-11-15T10:09:18;100474.70;;;14.43;28.39
49529;BME280;35423;37.320;-121.762;2022-11-15T10:11:40;100479.29;;;14.59;28.49
49529;BME280;35423;37.320;-121.762;2022-11-15T10:14:10;100481.74;;;13.71;28.45
49529;BME280;35423;37.320;-121.762;2022-11-15T10:16:47;100483.99;;;14.59;28.52
49529;BME280;35423;37.320;-121.762;2022-11-15T10:19:01;100484.29;;;14.36;28.51
49529;BME280;35423;37.320;-121.762;2022-11-15T10:21:24;100485.48;;;14.28;28.55
49529;BME280;35423;37.320;-121.762;2022-11-15T10:23:51;100489.35;;;14.48;28.59
49529;BME280;35423;37.320;-121.762;2022-11-15T10:26:17;100489.79;;;14.07;28.67
49529;BME280;35423;37.320;-121.762;2022-11-15T10:28:40;100489.89;;;14.29;28.73
49529;BME280;35423;37.320;-121.762;2022-11-15T10:33:39;100492.25;;;14.39;28.77
49529;BME280;35423;37.320;-121.762;2022-11-15T10:36:15;100492.63;;;13.64;28.79
49529;BME280;35423;37.320;-121.762;2022-11-15T10:41:06;100490.95;;;13.33;28.94
49529;BME280;35423;37.320;-121.762;2022-11-15T10:43:26;100491.90;;;14.46;28.91
49529;BME280;35423;37.320;-121.762;2022-11-15T10:48:28;100491.24;;;13.96;29.12
49529;BME280;35423;37.320;-121.762;2022-11-15T10:50:57;100490.89;;;13.51;28.96
49529;BME280;35423;37.320;-121.762;2022-11-15T10:53:28;100490.65;;;13.93;28.96
49529;BME280;35423;37.320;-121.762;2022-11-15T10:55:57;100488.35;;;13.91;28.97
49529;BME280;35423;37.320;-121.762;2022-11-15T10:58:37;100485.40;;;13.98;28.78
49529;BME280;35423;37.320;-121.762;2022-11-15T11:01:09;100484.29;;;13.40;28.62
49529;BME280;35423;37.320;-121.762;2022-11-15T11:03:31;100483.91;;;13.80;28.55
49529;BME280;35423;37.320;-121.762;2022-11-15T11:06:04;100484.27;;;13.73;28.52
49529;BME280;35423;37.320;-121.762;2022-11-15T11:08:23;100482.46;;;13.91;28.43
49529;BME280;35423;37.320;-121.762;2022-11-15T11:10:53;100486.35;;;13.58;28.48
49529;BME280;35423;37.320;-121.762;2022-11-15T11:13:14;100486.70;;;13.29;28.51
49529;BME280;35423;37.320;-121.762;2022-11-15T11:15:39;100490.69;;;13.49;28.47
49529;BME280;35423;37.320;-121.762;2022-11-15T11:18:07;100493.78;;;12.51;28.47
49529;BME280;35423;37.320;-121.762;2022-11-15T11:20:34;100493.25;;;13.70;28.46
49529;BME280;35423;37.320;-121.762;2022-11-15T11:23:06;100494.86;;;13.38;28.57
49529;BME280;35423;37.320;-121.762;2022-11-15T11:25:32;100490.96;;;13.60;28.70
49529;BME280;35423;37.320;-121.762;2022-11-15T11:27:59;100491.01;;;13.57;28.74
49529;BME280;35423;37.320;-121.762;2022-11-15T11:30:17;100491.22;;;13.19;28.84
49529;BME280;35423;37.320;-121.762;2022-11-15T11:32:50;100494.56;;;13.46;28.92
49529;BME280;35423;37.320;-121.762;2022-11-15T11:35:11;100496.22;;;12.70;29.04
49529;BME280;35423;37.320;-121.762;2022-11-15T11:37:36;100495.15;;;13.65;29.19
49529;BME280;35423;37.320;-121.762;2022-11-15T11:40:05;100496.67;;;13.42;29.21
49529;BME280;35423;37.320;-121.762;2022-11-15T11:42:33;100497.54;;;13.32;29.32
49529;BME280;35423;37.320;-121.762;2022-11-15T11:44:58;100496.99;;;13.47;29.36
49529;BME280;35423;37.320;-121.762;2022-11-15T11:47:22;100499.19;;;12.97;29.40
49529;BME280;35423;37.320;-121.762;2022-11-15T11:49:50;100496.69;;;13.42;29.38
49529;BME280;35423;37.320;-121.762;2022-11-15T11:52:16;100495.56;;;12.91;29.39
49529;BME280;35423;37.320;-121.762;2022-11-15T11:54:50;100491.99;;;13.34;29.45
49529;BME280;35423;37.320;-121.762;2022-11-15T11:57:12;100493.92;;;12.36;29.46
49529;BME280;35423;37.320;-121.762;2022-11-15T11:59:37;100492.09;;;13.08;29.50
49529;BME280;35423;37.320;-121.762;2022-11-15T12:01:59;100497.23;;;13.29;29.53
49529;BME280;35423;37.320;-121.762;2022-11-15T12:04:29;100501.64;;;12.73;29.60
49529;BME280;35423;37.320;-121.762;2022-11-15T12:06:54;100507.09;;;13.21;29.58
49529;BME280;35423;37.320;-121.762;2022-11-15T12:09:19;100510.49;;;13.13;29.65
49529;BME280;35423;37.320;-121.762;2022-11-15T12:11:49;100511.93;;;12.97;29.82
49529;BME280;35423;37.320;-121.762;2022-11-15T12:14:13;100515.44;;;12.30;29.73
49529;BME280;35423;37.320;-121.762;2022-11-15T12:16:34;100517.38;;;13.18;29.75
49529;BME280;35423;37.320;-121.762;2022-11-15T12:19:03;100517.96;;;12.47;29.73
49529;BME280;35423;37.320;-121.762;2022-11-15T12:21:35;100518.01;;;13.20;29.76
49529;BME280;35423;37.320;-121.762;2022-11-15T12:24:01;100519.48;;;13.12;29.94
49529;BME280;35423;37.320;-121.762;2022-11-15T12:26:27;100521.96;;;12.71;30.15
49529;BME280;35423;37.320;-121.762;2022-11-15T12:28:54;100523.77;;;12.80;30.06
49529;BME280;35423;37.320;-121.762;2022-11-15T12:31:23;100519.70;;;12.82;30.01
49529;BME280;35423;37.320;-121.762;2022-11-15T12:33:46;100518.23;;;12.87;29.99
49529;BME280;35423;37.320;-121.762;2022-11-15T12:41:13;100531.31;;;11.93;29.95
49529;BME280;35423;37.320;-121.762;2022-11-15T12:43:39;100534.40;;;12.66;29.97
49529;BME280;35423;37.320;-121.762;2022-11-15T12:46:04;100536.17;;;12.89;30.21